sensor_id;sensor_type;location;lat;lon;timestamp;temperature;humidity
7028;DHT22;3555;53.248;10.336;2023-05-07T00:01:20;8.50;99.90
7028;DHT22;3555;53.248;10.336;2023-05-07T00:03:47;9.00;99.90
7028;DHT22;3555;53.248;10.336;2023-05-07T00:06:14;8.60;99.90
7028;DHT22;3555;53.248;10.336;2023-05-07T00:08:46;8.60;99.90
7028;DHT22;3555;53.248;10.336;2023-05-07T00:11:16;9.10;99.90
7028;DHT22;3555;53.248;10.336;2023-05-07T00:13:43;8.50;99.90
7028;DHT22;3555;53.248;10.336;2023-05-07T00:16:10;8.50;99.90
7028;DHT22;3555;53.248;10.336;2023-05-07T00:21:38;8.60;99.90
7028;DHT22;3555;53.248;10.336;2023-05-07T00:24:07;8.60;99.90
7028;DHT22;3555;53.248;10.336;2023-05-07T00:26:40;8.60;99.90
7028;DHT22;3555;53.248;10.336;2023-05-07T00:29:08;8.50;99.90
7028;DHT22;3555;53.248;10.336;2023-05-07T00:31:36;7.70;99.90
7028;DHT22;3555;53.248;10.336;2023-05-07T00:34:17;8.40;99.90
7028;DHT22;3555;53.248;10.336;2023-05-07T00:36:59;8.40;99.90
7028;DHT22;3555;53.248;10.336;2023-05-07T00:39:34;9.30;99.90
7028;DHT22;3555;53.248;10.336;2023-05-07T00:42:03;8.50;99.90
7028;DHT22;3555;53.248;10.336;2023-05-07T00:44:32;8.40;99.90
7028;DHT22;3555;53.248;10.336;2023-05-07T00:47:02;8.50;99.90
7028;DHT22;3555;53.248;10.336;2023-05-07T00:49:35;8.50;99.90
7028;DHT22;3555;53.248;10.336;2023-05-07T00:52:08;8.50;99.90
7028;DHT22;3555;53.248;10.336;2023-05-07T00:54:36;8.50;99.90
7028;DHT22;3555;53.248;10.336;2023-05-07T00:57:04;8.80;99.90
7028;DHT22;3555;53.248;10.336;2023-05-07T00:59:32;8.50;99.90
7028;DHT22;3555;53.248;10.336;2023-05-07T01:02:00;8.50;99.90
7028;DHT22;3555;53.248;10.336;2023-05-07T01:04:27;8.50;99.90
7028;DHT22;3555;53.248;10.336;2023-05-07T01:06:58;8.90;99.90
7028;DHT22;3555;53.248;10.336;2023-05-07T01:09:39;8.50;99.90
7028;DHT22;3555;53.248;10.336;2023-05-07T01:12:07;8.50;99.90
7028;DHT22;3555;53.248;10.336;2023-05-07T01:14:34;8.60;99.90
7028;DHT22;3555;53.248;10.336;2023-05-07T01:17:02;9.20;99.90
7028;DHT22;3555;53.248;10.336;2023-05-07T01:19:30;10.10;99.90
7028;DHT22;3555;53.248;10.336;2023-05-07T01:22:02;8.70;99.90
7028;DHT22;3555;53.248;10.336;2023-05-07T01:24:48;8.70;99.90
7028;DHT22;3555;53.248;10.336;2023-05-07T01:27:29;8.60;99.90
7028;DHT22;3555;53.248;10.336;2023-05-07T01:29:56;8.60;99.90
7028;DHT22;3555;53.248;10.336;2023-05-07T01:32:27;8.60;99.90
7028;DHT22;3555;53.248;10.336;2023-05-07T01:34:55;9.50;99.90
7028;DHT22;3555;53.248;10.336;2023-05-07T01:37:25;9.10;99.90
7028;DHT22;3555;53.248;10.336;2023-05-07T01:39:54;8.50;99.90
7028;DHT22;3555;53.248;10.336;2023-05-07T01:42:23;8.40;99.90
7028;DHT22;3555;53.248;10.336;2023-05-07T01:44:50;8.50;99.90
7028;DHT22;3555;53.248;10.336;2023-05-07T01:47:17;7.40;99.90
7028;DHT22;3555;53.248;10.336;2023-05-07T01:49:45;8.40;99.90
7028;DHT22;3555;53.248;10.336;2023-05-07T01:52:13;8.80;99.90
7028;DHT22;3555;53.248;10.336;2023-05-07T01:54:52;8.40;99.90
7028;DHT22;3555;53.248;10.336;2023-05-07T01:57:20;8.50;99.90
7028;DHT22;3555;53.248;10.336;2023-05-07T01:59:50;8.50;99.90
7028;DHT22;3555;53.248;10.336;2023-05-07T02:02:17;8.90;99.90
7028;DHT22;3555;53.248;10.336;2023-05-07T02:04:44;8.50;99.90
7028;DHT22;3555;53.248;10.336;2023-05-07T02:07:11;8.60;99.90
7028;DHT22;3555;53.248;10.336;2023-05-07T02:09:42;9.00;99.90
7028;DHT22;3555;53.248;10.336;2023-05-07T02:12:09;9.30;99.90
7028;DHT22;3555;53.248;10.336;2023-05-07T02:14:37;8.60;99.90
7028;DHT22;3555;53.248;10.336;2023-05-07T02:17:04;8.60;99.90
7028;DHT22;3555;53.248;10.336;2023-05-07T02:19:31;8.60;99.90
7028;DHT22;3555;53.248;10.336;2023-05-07T02:21:58;8.70;99.90
7028;DHT22;3555;53.248;10.336;2023-05-07T02:24:26;7.90;99.90
7028;DHT22;3555;53.248;10.336;2023-05-07T02:26:53;8.70;99.90
7028;DHT22;3555;53.248;10.336;2023-05-07T02:29:20;9.40;99.90
7028;DHT22;3555;53.248;10.336;2023-05-07T02:31:48;8.40;99.90
7028;DHT22;3555;53.248;10.336;2023-05-07T02:34:16;9.40;99.90
7028;DHT22;3555;53.248;10.336;2023-05-07T02:36:43;8.40;99.90
7028;DHT22;3555;53.248;10.336;2023-05-07T02:39:11;8.30;99.90
7028;DHT22;3555;53.248;10.336;2023-05-07T02:41:38;8.30;99.90
7028;DHT22;3555;53.248;10.336;2023-05-07T02:44:05;9.70;99.90
7028;DHT22;3555;53.248;10.336;2023-05-07T02:46:32;8.30;99.90
7028;DHT22;3555;53.248;10.336;2023-05-07T02:49:01;8.20;99.90
7028;DHT22;3555;53.248;10.336;2023-05-07T02:51:29;8.30;99.90
7028;DHT22;3555;53.248;10.336;2023-05-07T02:53:56;8.30;99.90
7028;DHT22;3555;53.248;10.336;2023-05-07T02:56:25;8.40;99.90
7028;DHT22;3555;53.248;10.336;2023-05-07T02:58:52;8.90;99.90
7028;DHT22;3555;53.248;10.336;2023-05-07T03:01:19;9.30;99.90
7028;DHT22;3555;53.248;10.336;2023-05-07T03:03:46;8.60;99.90
7028;DHT22;3555;53.248;10.336;2023-05-07T03:06:14;8.50;99.90
7028;DHT22;3555;53.248;10.336;2023-05-07T03:08:42;8.50;99.90
7028;DHT22;3555;53.248;10.336;2023-05-07T03:11:10;8.60;99.90
7028;DHT22;3555;53.248;10.336;2023-05-07T03:13:37;8.40;99.90
7028;DHT22;3555;53.248;10.336;2023-05-07T03:16:05;7.30;99.90
7028;DHT22;3555;53.248;10.336;2023-05-07T03:18:33;8.50;99.90
7028;DHT22;3555;53.248;10.336;2023-05-07T03:21:00;9.80;99.90
7028;DHT22;3555;53.248;10.336;2023-05-07T03:23:28;8.40;99.90
7028;DHT22;3555;53.248;10.336;2023-05-07T03:25:55;8.50;99.90
7028;DHT22;3555;53.248;10.336;2023-05-07T03:28:22;8.50;99.90
7028;DHT22;3555;53.248;10.336;2023-05-07T03:30:49;8.50;99.90
7028;DHT22;3555;53.248;10.336;2023-05-07T03:33:17;8.50;99.90
7028;DHT22;3555;53.248;10.336;2023-05-07T03:35:44;8.40;99.90
7028;DHT22;3555;53.248;10.336;2023-05-07T03:38:12;8.50;99.90
7028;DHT22;3555;53.248;10.336;2023-05-07T03:40:41;9.00;99.90
7028;DHT22;3555;53.248;10.336;2023-05-07T03:43:09;8.40;99.90
7028;DHT22;3555;53.248;10.336;2023-05-07T03:45:36;9.40;99.90
7028;DHT22;3555;53.248;10.336;2023-05-07T03:48:03;8.50;99.90
7028;DHT22;3555;53.248;10.336;2023-05-07T03:50:31;8.50;99.90
7028;DHT22;3555;53.248;10.336;2023-05-07T03:52:58;8.60;99.90
7028;DHT22;3555;53.248;10.336;2023-05-07T03:55:25;8.50;99.90
7028;DHT22;3555;53.248;10.336;2023-05-07T03:57:53;8.50;99.90
7028;DHT22;3555;53.248;10.336;2023-05-07T04:00:20;9.40;99.90
7028;DHT22;3555;53.248;10.336;2023-05-07T04:02:47;8.40;99.90
7028;DHT22;3555;53.248;10.336;2023-05-07T04:05:14;8.80;99.90
7028;DHT22;3555;53.248;10.336;2023-05-07T04:07:42;9.20;99.90
7028;DHT22;3555;53.248;10.336;2023-05-07T04:10:09;8.40;99.90
7028;DHT22;3555;53.248;10.336;2023-05-07T04:12:36;8.40;99.90
7028;DHT22;3555;53.248;10.336;2023-05-07T04:15:05;8.40;99.90
7028;DHT22;3555;53.248;10.336;2023-05-07T04:17:33;8.40;99.90
7028;DHT22;3555;53.248;10.336;2023-05-07T04:20:00;8.40;99.90
7028;DHT22;3555;53.248;10.336;2023-05-07T04:22:26;8.50;99.90
7028;DHT22;3555;53.248;10.336;2023-05-07T04:24:54;8.40;99.90
7028;DHT22;3555;53.248;10.336;2023-05-07T04:27:21;8.40;99.90
7028;DHT22;3555;53.248;10.336;2023-05-07T04:29:48;8.80;99.90
7028;DHT22;3555;53.248;10.336;2023-05-07T04:32:16;8.50;99.90
7028;DHT22;3555;53.248;10.336;2023-05-07T04:34:43;9.50;99.90
7028;DHT22;3555;53.248;10.336;2023-05-07T04:37:10;8.60;99.90
7028;DHT22;3555;53.248;10.336;2023-05-07T04:39:37;9.30;99.90
7028;DHT22;3555;53.248;10.336;2023-05-07T04:42:04;9.30;99.90
7028;DHT22;3555;53.248;10.336;2023-05-07T04:44:34;8.60;99.90
7028;DHT22;3555;53.248;10.336;2023-05-07T04:47:03;8.60;99.90
7028;DHT22;3555;53.248;10.336;2023-05-07T04:49:32;8.60;99.90
7028;DHT22;3555;53.248;10.336;2023-05-07T04:52:03;8.60;99.90
7028;DHT22;3555;53.248;10.336;2023-05-07T04:54:42;8.60;99.90
7028;DHT22;3555;53.248;10.336;2023-05-07T04:57:09;8.60;99.90
7028;DHT22;3555;53.248;10.336;2023-05-07T04:59:36;8.80;99.90
7028;DHT22;3555;53.248;10.336;2023-05-07T05:02:04;8.60;99.90
7028;DHT22;3555;53.248;10.336;2023-05-07T05:04:32;9.00;99.90
7028;DHT22;3555;53.248;10.336;2023-05-07T05:06:59;8.70;99.90
7028;DHT22;3555;53.248;10.336;2023-05-07T05:09:26;8.70;99.90
7028;DHT22;3555;53.248;10.336;2023-05-07T05:11:56;8.80;99.90
7028;DHT22;3555;53.248;10.336;2023-05-07T05:14:29;9.20;99.90
7028;DHT22;3555;53.248;10.336;2023-05-07T05:16:56;8.90;99.90
7028;DHT22;3555;53.248;10.336;2023-05-07T05:19:23;8.80;99.90
7028;DHT22;3555;53.248;10.336;2023-05-07T05:21:51;8.80;99.90
7028;DHT22;3555;53.248;10.336;2023-05-07T05:24:18;9.80;99.90
7028;DHT22;3555;53.248;10.336;2023-05-07T05:26:45;9.40;99.90
7028;DHT22;3555;53.248;10.336;2023-05-07T05:29:12;9.30;99.90
7028;DHT22;3555;53.248;10.336;2023-05-07T05:31:39;8.80;99.90
7028;DHT22;3555;53.248;10.336;2023-05-07T05:34:07;8.70;99.90
7028;DHT22;3555;53.248;10.336;2023-05-07T05:36:33;8.80;99.90
7028;DHT22;3555;53.248;10.336;2023-05-07T05:39:02;8.80;99.90
7028;DHT22;3555;53.248;10.336;2023-05-07T05:41:29;8.70;99.90
7028;DHT22;3555;53.248;10.336;2023-05-07T05:43:56;8.70;99.90
7028;DHT22;3555;53.248;10.336;2023-05-07T05:46:23;8.70;99.90
7028;DHT22;3555;53.248;10.336;2023-05-07T05:48:51;8.70;99.90
7028;DHT22;3555;53.248;10.336;2023-05-07T05:51:18;8.70;99.90
7028;DHT22;3555;53.248;10.336;2023-05-07T05:53:45;8.70;99.90
7028;DHT22;3555;53.248;10.336;2023-05-07T05:56:14;8.80;99.90
7028;DHT22;3555;53.248;10.336;2023-05-07T05:58:41;8.80;99.90
7028;DHT22;3555;53.248;10.336;2023-05-07T06:01:08;8.80;99.90
7028;DHT22;3555;53.248;10.336;2023-05-07T06:03:37;9.30;99.90
7028;DHT22;3555;53.248;10.336;2023-05-07T06:06:04;8.80;99.90
7028;DHT22;3555;53.248;10.336;2023-05-07T06:08:31;8.80;99.90
7028;DHT22;3555;53.248;10.336;2023-05-07T06:10:58;8.90;99.90
7028;DHT22;3555;53.248;10.336;2023-05-07T06:13:27;8.90;99.90
7028;DHT22;3555;53.248;10.336;2023-05-07T06:15:54;8.90;99.90
7028;DHT22;3555;53.248;10.336;2023-05-07T06:18:21;9.00;99.90
7028;DHT22;3555;53.248;10.336;2023-05-07T06:20:48;9.10;99.90
7028;DHT22;3555;53.248;10.336;2023-05-07T06:23:15;9.10;99.90
7028;DHT22;3555;53.248;10.336;2023-05-07T06:25:43;9.00;99.90
7028;DHT22;3555;53.248;10.336;2023-05-07T06:28:12;9.00;99.90
7028;DHT22;3555;53.248;10.336;2023-05-07T06:30:40;9.00;99.90
7028;DHT22;3555;53.248;10.336;2023-05-07T06:33:07;9.10;99.90
7028;DHT22;3555;53.248;10.336;2023-05-07T06:35:34;9.40;99.90
7028;DHT22;3555;53.248;10.336;2023-05-07T06:38:01;9.10;99.90
7028;DHT22;3555;53.248;10.336;2023-05-07T06:40:28;9.10;99.90
7028;DHT22;3555;53.248;10.336;2023-05-07T06:42:55;9.40;99.90
7028;DHT22;3555;53.248;10.336;2023-05-07T06:45:22;9.20;99.90
7028;DHT22;3555;53.248;10.336;2023-05-07T06:47:50;8.50;99.90
7028;DHT22;3555;53.248;10.336;2023-05-07T06:50:17;9.10;99.90
7028;DHT22;3555;53.248;10.336;2023-05-07T06:52:44;9.20;99.90
7028;DHT22;3555;53.248;10.336;2023-05-07T06:55:11;9.40;99.90
7028;DHT22;3555;53.248;10.336;2023-05-07T06:57:38;9.20;99.90
7028;DHT22;3555;53.248;10.336;2023-05-07T07:00:06;9.30;99.90
7028;DHT22;3555;53.248;10.336;2023-05-07T07:02:34;9.20;99.90
7028;DHT22;3555;53.248;10.336;2023-05-07T07:05:02;9.20;99.90
7028;DHT22;3555;53.248;10.336;2023-05-07T07:07:29;9.30;99.90
7028;DHT22;3555;53.248;10.336;2023-05-07T07:09:56;9.30;99.90
7028;DHT22;3555;53.248;10.336;2023-05-07T07:12:23;9.30;99.90
7028;DHT22;3555;53.248;10.336;2023-05-07T07:14:51;9.30;99.90
7028;DHT22;3555;53.248;10.336;2023-05-07T07:17:18;9.20;99.90
7028;DHT22;3555;53.248;10.336;2023-05-07T07:19:45;9.40;99.90
7028;DHT22;3555;53.248;10.336;2023-05-07T07:22:13;9.30;99.90
7028;DHT22;3555;53.248;10.336;2023-05-07T07:24:40;9.30;99.90
7028;DHT22;3555;53.248;10.336;2023-05-07T07:27:07;9.40;99.90
7028;DHT22;3555;53.248;10.336;2023-05-07T07:29:33;9.30;99.90
7028;DHT22;3555;53.248;10.336;2023-05-07T07:32:00;9.40;99.90
7028;DHT22;3555;53.248;10.336;2023-05-07T07:34:27;9.30;99.90
7028;DHT22;3555;53.248;10.336;2023-05-07T07:36:54;9.30;99.90
7028;DHT22;3555;53.248;10.336;2023-05-07T07:39:23;9.30;99.90
7028;DHT22;3555;53.248;10.336;2023-05-07T07:41:50;9.40;99.90
7028;DHT22;3555;53.248;10.336;2023-05-07T07:44:16;9.50;99.90
7028;DHT22;3555;53.248;10.336;2023-05-07T07:46:43;9.50;99.90
7028;DHT22;3555;53.248;10.336;2023-05-07T07:49:10;9.50;99.90
7028;DHT22;3555;53.248;10.336;2023-05-07T07:51:37;9.60;99.90
7028;DHT22;3555;53.248;10.336;2023-05-07T07:54:04;9.50;99.90
7028;DHT22;3555;53.248;10.336;2023-05-07T07:56:33;9.50;99.90
7028;DHT22;3555;53.248;10.336;2023-05-07T07:59:00;9.50;1.00
7028;DHT22;3555;53.248;10.336;2023-05-07T08:01:28;9.50;99.90
7028;DHT22;3555;53.248;10.336;2023-05-07T08:03:54;9.60;99.90
7028;DHT22;3555;53.248;10.336;2023-05-07T08:06:23;9.60;99.90
7028;DHT22;3555;53.248;10.336;2023-05-07T08:08:51;9.70;91.00
7028;DHT22;3555;53.248;10.336;2023-05-07T08:11:18;9.70;1.00
7028;DHT22;3555;53.248;10.336;2023-05-07T08:13:47;9.70;1.00
7028;DHT22;3555;53.248;10.336;2023-05-07T08:16:14;9.70;3.40
7028;DHT22;3555;53.248;10.336;2023-05-07T08:18:40;9.70;1.00
7028;DHT22;3555;53.248;10.336;2023-05-07T08:21:07;9.90;1.00
7028;DHT22;3555;53.248;10.336;2023-05-07T08:23:34;9.90;1.00
7028;DHT22;3555;53.248;10.336;2023-05-07T08:26:01;10.00;1.00
7028;DHT22;3555;53.248;10.336;2023-05-07T08:28:28;10.00;99.90
7028;DHT22;3555;53.248;10.336;2023-05-07T08:30:56;10.10;99.90
7028;DHT22;3555;53.248;10.336;2023-05-07T08:33:26;10.00;23.80
7028;DHT22;3555;53.248;10.336;2023-05-07T08:35:53;10.10;27.50
7028;DHT22;3555;53.248;10.336;2023-05-07T08:38:20;10.10;1.00
7028;DHT22;3555;53.248;10.336;2023-05-07T08:40:46;10.00;1.00
7028;DHT22;3555;53.248;10.336;2023-05-07T08:43:14;10.00;1.00
7028;DHT22;3555;53.248;10.336;2023-05-07T08:45:41;10.10;99.90
7028;DHT22;3555;53.248;10.336;2023-05-07T08:48:15;10.10;1.00
7028;DHT22;3555;53.248;10.336;2023-05-07T08:50:42;10.10;1.00
7028;DHT22;3555;53.248;10.336;2023-05-07T08:53:09;10.10;17.50
7028;DHT22;3555;53.248;10.336;2023-05-07T08:55:36;10.10;99.90
7028;DHT22;3555;53.248;10.336;2023-05-07T08:58:03;10.20;99.90
7028;DHT22;3555;53.248;10.336;2023-05-07T09:00:30;10.20;1.00
7028;DHT22;3555;53.248;10.336;2023-05-07T09:02:57;10.30;1.00
7028;DHT22;3555;53.248;10.336;2023-05-07T09:05:25;10.50;1.00
7028;DHT22;3555;53.248;10.336;2023-05-07T09:07:52;10.50;99.90
7028;DHT22;3555;53.248;10.336;2023-05-07T09:10:21;10.60;1.00
7028;DHT22;3555;53.248;10.336;2023-05-07T09:12:48;10.40;99.90
7028;DHT22;3555;53.248;10.336;2023-05-07T09:15:16;11.10;80.90
7028;DHT22;3555;53.248;10.336;2023-05-07T09:17:43;10.50;1.00
7028;DHT22;3555;53.248;10.336;2023-05-07T09:20:10;10.70;1.00
7028;DHT22;3555;53.248;10.336;2023-05-07T09:22:40;10.60;1.00
7028;DHT22;3555;53.248;10.336;2023-05-07T09:25:08;10.40;1.00
7028;DHT22;3555;53.248;10.336;2023-05-07T09:27:36;10.40;1.00
7028;DHT22;3555;53.248;10.336;2023-05-07T09:30:05;10.30;1.00
7028;DHT22;3555;53.248;10.336;2023-05-07T09:32:35;10.40;1.00
7028;DHT22;3555;53.248;10.336;2023-05-07T09:35:04;10.70;1.00
7028;DHT22;3555;53.248;10.336;2023-05-07T09:37:31;10.50;99.90
7028;DHT22;3555;53.248;10.336;2023-05-07T09:39:59;10.60;1.00
7028;DHT22;3555;53.248;10.336;2023-05-07T09:42:27;10.70;99.90
7028;DHT22;3555;53.248;10.336;2023-05-07T09:44:54;10.80;1.00
7028;DHT22;3555;53.248;10.336;2023-05-07T09:47:24;10.70;1.00
7028;DHT22;3555;53.248;10.336;2023-05-07T09:49:55;10.70;99.90
7028;DHT22;3555;53.248;10.336;2023-05-07T09:52:23;10.60;1.00
7028;DHT22;3555;53.248;10.336;2023-05-07T09:54:51;10.50;1.00
7028;DHT22;3555;53.248;10.336;2023-05-07T09:57:24;11.10;1.00
7028;DHT22;3555;53.248;10.336;2023-05-07T09:59:54;10.60;99.90
7028;DHT22;3555;53.248;10.336;2023-05-07T10:02:23;10.60;1.00
7028;DHT22;3555;53.248;10.336;2023-05-07T10:04:52;10.70;99.90
7028;DHT22;3555;53.248;10.336;2023-05-07T10:07:21;10.50;99.90
7028;DHT22;3555;53.248;10.336;2023-05-07T10:09:49;10.60;99.90
7028;DHT22;3555;53.248;10.336;2023-05-07T10:12:17;10.70;1.00
7028;DHT22;3555;53.248;10.336;2023-05-07T10:14:47;10.50;1.00
7028;DHT22;3555;53.248;10.336;2023-05-07T10:17:16;10.60;1.00
7028;DHT22;3555;53.248;10.336;2023-05-07T10:19:44;10.60;99.90
7028;DHT22;3555;53.248;10.336;2023-05-07T10:22:12;10.70;1.00
7028;DHT22;3555;53.248;10.336;2023-05-07T10:24:40;10.80;1.00
7028;DHT22;3555;53.248;10.336;2023-05-07T10:27:10;10.90;1.00
7028;DHT22;3555;53.248;10.336;2023-05-07T10:29:45;10.90;99.90
7028;DHT22;3555;53.248;10.336;2023-05-07T10:32:33;10.90;1.00
7028;DHT22;3555;53.248;10.336;2023-05-07T10:35:06;10.90;99.90
7028;DHT22;3555;53.248;10.336;2023-05-07T10:37:35;10.90;1.00
7028;DHT22;3555;53.248;10.336;2023-05-07T10:40:03;10.90;1.00
7028;DHT22;3555;53.248;10.336;2023-05-07T10:42:32;11.00;1.00
7028;DHT22;3555;53.248;10.336;2023-05-07T10:45:11;11.10;99.90
7028;DHT22;3555;53.248;10.336;2023-05-07T10:50:32;11.20;1.00
7028;DHT22;3555;53.248;10.336;2023-05-07T10:53:24;11.30;99.90
7028;DHT22;3555;53.248;10.336;2023-05-07T10:56:24;11.30;1.00
7028;DHT22;3555;53.248;10.336;2023-05-07T10:58:54;11.40;1.00
7028;DHT22;3555;53.248;10.336;2023-05-07T11:01:52;11.20;8.80
7028;DHT22;3555;53.248;10.336;2023-05-07T11:04:20;11.30;1.00
7028;DHT22;3555;53.248;10.336;2023-05-07T11:10:08;11.40;1.00
7028;DHT22;3555;53.248;10.336;2023-05-07T11:12:54;11.40;1.00
7028;DHT22;3555;53.248;10.336;2023-05-07T11:15:35;11.50;1.00
7028;DHT22;3555;53.248;10.336;2023-05-07T11:18:03;11.70;1.00
7028;DHT22;3555;53.248;10.336;2023-05-07T11:20:47;11.70;1.00
7028;DHT22;3555;53.248;10.336;2023-05-07T11:23:57;11.80;1.00
7028;DHT22;3555;53.248;10.336;2023-05-07T11:26:25;11.90;99.90
7028;DHT22;3555;53.248;10.336;2023-05-07T11:28:52;12.10;1.00
7028;DHT22;3555;53.248;10.336;2023-05-07T11:31:24;12.00;99.90
7028;DHT22;3555;53.248;10.336;2023-05-07T11:33:52;12.10;99.90
7028;DHT22;3555;53.248;10.336;2023-05-07T11:36:22;12.10;24.90
7028;DHT22;3555;53.248;10.336;2023-05-07T11:38:49;12.10;1.00
7028;DHT22;3555;53.248;10.336;2023-05-07T11:41:17;12.10;99.90
7028;DHT22;3555;53.248;10.336;2023-05-07T11:43:54;12.20;1.00
7028;DHT22;3555;53.248;10.336;2023-05-07T11:46:22;12.30;1.00
7028;DHT22;3555;53.248;10.336;2023-05-07T11:48:49;12.30;1.00
7028;DHT22;3555;53.248;10.336;2023-05-07T11:51:19;12.40;1.00
7028;DHT22;3555;53.248;10.336;2023-05-07T11:53:46;12.40;1.00
7028;DHT22;3555;53.248;10.336;2023-05-07T11:56:17;12.60;1.00
7028;DHT22;3555;53.248;10.336;2023-05-07T11:58:46;12.70;1.00
7028;DHT22;3555;53.248;10.336;2023-05-07T12:01:13;12.70;99.90
7028;DHT22;3555;53.248;10.336;2023-05-07T12:03:43;12.70;99.90
7028;DHT22;3555;53.248;10.336;2023-05-07T12:06:12;12.70;1.00
7028;DHT22;3555;53.248;10.336;2023-05-07T12:08:40;12.50;1.00
7028;DHT22;3555;53.248;10.336;2023-05-07T12:11:08;12.50;1.00
7028;DHT22;3555;53.248;10.336;2023-05-07T12:13:38;12.60;1.00
7028;DHT22;3555;53.248;10.336;2023-05-07T12:16:06;12.70;1.00
7028;DHT22;3555;53.248;10.336;2023-05-07T12:18:35;12.90;99.90
7028;DHT22;3555;53.248;10.336;2023-05-07T12:21:02;12.90;99.90
7028;DHT22;3555;53.248;10.336;2023-05-07T12:23:30;12.90;99.90
7028;DHT22;3555;53.248;10.336;2023-05-07T12:25:57;12.80;99.90
7028;DHT22;3555;53.248;10.336;2023-05-07T12:28:25;13.10;99.90
7028;DHT22;3555;53.248;10.336;2023-05-07T12:30:54;13.30;99.90
7028;DHT22;3555;53.248;10.336;2023-05-07T12:33:25;13.30;99.90
7028;DHT22;3555;53.248;10.336;2023-05-07T12:35:55;13.20;27.30
7028;DHT22;3555;53.248;10.336;2023-05-07T12:38:22;13.10;5.20
7028;DHT22;3555;53.248;10.336;2023-05-07T12:40:49;13.30;99.90
7028;DHT22;3555;53.248;10.336;2023-05-07T12:43:18;13.40;1.00
7028;DHT22;3555;53.248;10.336;2023-05-07T12:45:47;13.50;1.00
7028;DHT22;3555;53.248;10.336;2023-05-07T12:48:16;13.70;1.00
7028;DHT22;3555;53.248;10.336;2023-05-07T12:50:43;13.90;1.00
7028;DHT22;3555;53.248;10.336;2023-05-07T12:53:11;14.00;1.00
7028;DHT22;3555;53.248;10.336;2023-05-07T12:55:43;14.10;1.00
7028;DHT22;3555;53.248;10.336;2023-05-07T12:58:18;14.30;1.00
7028;DHT22;3555;53.248;10.336;2023-05-07T13:00:47;14.60;1.00
7028;DHT22;3555;53.248;10.336;2023-05-07T13:03:23;14.80;1.00
7028;DHT22;3555;53.248;10.336;2023-05-07T13:05:50;15.00;1.00
7028;DHT22;3555;53.248;10.336;2023-05-07T13:08:28;15.20;99.90
7028;DHT22;3555;53.248;10.336;2023-05-07T13:10:59;15.30;99.90
7028;DHT22;3555;53.248;10.336;2023-05-07T13:13:28;15.40;99.90
7028;DHT22;3555;53.248;10.336;2023-05-07T13:15:55;15.20;99.90
7028;DHT22;3555;53.248;10.336;2023-05-07T13:18:24;14.90;99.90
7028;DHT22;3555;53.248;10.336;2023-05-07T13:20:51;14.60;99.90
7028;DHT22;3555;53.248;10.336;2023-05-07T13:23:18;14.60;99.90
7028;DHT22;3555;53.248;10.336;2023-05-07T13:25:45;14.70;99.90
7028;DHT22;3555;53.248;10.336;2023-05-07T13:28:12;14.60;1.00
7028;DHT22;3555;53.248;10.336;2023-05-07T13:30:39;14.50;1.00
7028;DHT22;3555;53.248;10.336;2023-05-07T13:33:10;14.50;1.00
7028;DHT22;3555;53.248;10.336;2023-05-07T13:35:38;14.70;1.00
7028;DHT22;3555;53.248;10.336;2023-05-07T13:38:05;14.70;99.90
7028;DHT22;3555;53.248;10.336;2023-05-07T13:40:32;14.70;99.90
7028;DHT22;3555;53.248;10.336;2023-05-07T13:42:59;14.60;99.90
7028;DHT22;3555;53.248;10.336;2023-05-07T13:45:27;14.80;99.90
7028;DHT22;3555;53.248;10.336;2023-05-07T13:47:55;14.90;99.90
7028;DHT22;3555;53.248;10.336;2023-05-07T13:50:22;15.10;99.90
7028;DHT22;3555;53.248;10.336;2023-05-07T13:52:51;15.20;1.00
7028;DHT22;3555;53.248;10.336;2023-05-07T13:55:18;15.30;99.90
7028;DHT22;3555;53.248;10.336;2023-05-07T13:57:45;15.30;99.90
7028;DHT22;3555;53.248;10.336;2023-05-07T14:00:12;15.30;99.90
7028;DHT22;3555;53.248;10.336;2023-05-07T14:02:40;15.40;99.90
7028;DHT22;3555;53.248;10.336;2023-05-07T14:05:07;15.50;99.90
7028;DHT22;3555;53.248;10.336;2023-05-07T14:07:34;15.40;99.90
7028;DHT22;3555;53.248;10.336;2023-05-07T14:10:03;15.40;99.90
7028;DHT22;3555;53.248;10.336;2023-05-07T14:12:31;15.30;99.90
7028;DHT22;3555;53.248;10.336;2023-05-07T14:14:58;15.50;99.90
7028;DHT22;3555;53.248;10.336;2023-05-07T14:17:25;15.70;99.90
7028;DHT22;3555;53.248;10.336;2023-05-07T14:19:52;15.70;99.90
7028;DHT22;3555;53.248;10.336;2023-05-07T14:22:20;15.60;99.90
7028;DHT22;3555;53.248;10.336;2023-05-07T14:24:48;15.70;99.90
7028;DHT22;3555;53.248;10.336;2023-05-07T14:27:16;15.70;99.90
7028;DHT22;3555;53.248;10.336;2023-05-07T14:29:43;15.90;99.90
7028;DHT22;3555;53.248;10.336;2023-05-07T14:32:11;15.80;85.10
7028;DHT22;3555;53.248;10.336;2023-05-07T14:34:38;15.80;64.50
7028;DHT22;3555;53.248;10.336;2023-05-07T14:37:05;15.80;77.00
7028;DHT22;3555;53.248;10.336;2023-05-07T14:39:32;15.70;52.20
7028;DHT22;3555;53.248;10.336;2023-05-07T14:41:59;15.90;90.10
7028;DHT22;3555;53.248;10.336;2023-05-07T14:44:27;16.00;73.30
7028;DHT22;3555;53.248;10.336;2023-05-07T14:46:54;16.20;99.90
7028;DHT22;3555;53.248;10.336;2023-05-07T14:49:21;16.30;56.50
7028;DHT22;3555;53.248;10.336;2023-05-07T14:51:49;16.30;53.20
7028;DHT22;3555;53.248;10.336;2023-05-07T14:54:16;16.10;52.20
7028;DHT22;3555;53.248;10.336;2023-05-07T14:56:43;16.00;25.40
7028;DHT22;3555;53.248;10.336;2023-05-07T14:59:09;15.90;14.40
7028;DHT22;3555;53.248;10.336;2023-05-07T15:01:38;15.80;67.20
7028;DHT22;3555;53.248;10.336;2023-05-07T15:04:10;15.90;99.90
7028;DHT22;3555;53.248;10.336;2023-05-07T15:06:37;15.80;99.90
7028;DHT22;3555;53.248;10.336;2023-05-07T15:09:04;15.90;99.90
7028;DHT22;3555;53.248;10.336;2023-05-07T15:11:31;15.80;81.10
7028;DHT22;3555;53.248;10.336;2023-05-07T15:13:58;15.90;78.40
7028;DHT22;3555;53.248;10.336;2023-05-07T15:16:25;15.80;93.80
7028;DHT22;3555;53.248;10.336;2023-05-07T15:18:53;15.80;81.20
7028;DHT22;3555;53.248;10.336;2023-05-07T15:21:20;15.80;95.70
7028;DHT22;3555;53.248;10.336;2023-05-07T15:23:48;15.70;66.30
7028;DHT22;3555;53.248;10.336;2023-05-07T15:26:15;15.80;93.00
7028;DHT22;3555;53.248;10.336;2023-05-07T15:28:41;15.80;53.90
7028;DHT22;3555;53.248;10.336;2023-05-07T15:31:08;15.80;84.40
7028;DHT22;3555;53.248;10.336;2023-05-07T15:33:35;15.80;99.90
7028;DHT22;3555;53.248;10.336;2023-05-07T15:36:04;15.70;99.90
7028;DHT22;3555;53.248;10.336;2023-05-07T15:38:31;15.80;96.90
7028;DHT22;3555;53.248;10.336;2023-05-07T15:40:58;15.90;60.10
7028;DHT22;3555;53.248;10.336;2023-05-07T15:43:25;15.80;96.40
7028;DHT22;3555;53.248;10.336;2023-05-07T15:45:52;15.80;94.40
7028;DHT22;3555;53.248;10.336;2023-05-07T15:48:19;15.90;93.80
7028;DHT22;3555;53.248;10.336;2023-05-07T15:50:46;15.80;86.40
7028;DHT22;3555;53.248;10.336;2023-05-07T15:53:14;15.80;77.40
7028;DHT22;3555;53.248;10.336;2023-05-07T15:55:41;15.90;94.50
7028;DHT22;3555;53.248;10.336;2023-05-07T15:58:09;15.70;98.70
7028;DHT22;3555;53.248;10.336;2023-05-07T16:00:37;15.80;99.90
7028;DHT22;3555;53.248;10.336;2023-05-07T16:03:05;15.80;59.80
7028;DHT22;3555;53.248;10.336;2023-05-07T16:05:33;15.80;99.90
7028;DHT22;3555;53.248;10.336;2023-05-07T16:08:00;15.70;99.90
7028;DHT22;3555;53.248;10.336;2023-05-07T16:10:28;15.70;99.90
7028;DHT22;3555;53.248;10.336;2023-05-07T16:12:55;15.80;99.90
7028;DHT22;3555;53.248;10.336;2023-05-07T16:15:22;15.90;99.90